sensor_id;sensor_type;location;lat;lon;timestamp;pressure;altitude;pressure_sealevel;temperature;humidity
61537;BME280;48695;53.480;-6.300;2023-04-28T00:02:12;100154.41;;;14.62;63.26
61537;BME280;48695;53.480;-6.300;2023-04-28T00:04:38;100155.34;;;14.61;62.84
61537;BME280;48695;53.480;-6.300;2023-04-28T00:07:03;100153.78;;;14.57;63.16
61537;BME280;48695;53.480;-6.300;2023-04-28T00:09:29;100156.41;;;14.57;63.34
61537;BME280;48695;53.480;-6.300;2023-04-28T00:11:54;100162.44;;;14.59;63.47
61537;BME280;48695;53.480;-6.300;2023-04-28T00:14:20;100160.75;;;14.58;62.98
61537;BME280;48695;53.480;-6.300;2023-04-28T00:16:45;100162.50;;;14.58;63.15
61537;BME280;48695;53.480;-6.300;2023-04-28T00:19:11;100160.75;;;14.58;63.22
61537;BME280;48695;53.480;-6.300;2023-04-28T00:21:36;100160.75;;;14.58;63.28
61537;BME280;48695;53.480;-6.300;2023-04-28T00:24:02;100153.91;;;14.54;63.11
61537;BME280;48695;53.480;-6.300;2023-04-28T00:26:27;100156.41;;;14.57;63.03
61537;BME280;48695;53.480;-6.300;2023-04-28T00:28:52;100152.94;;;14.57;63.36
61537;BME280;48695;53.480;-6.300;2023-04-28T00:31:18;100146.84;;;14.56;63.16
61537;BME280;48695;53.480;-6.300;2023-04-28T00:33:43;100145.97;;;14.56;62.93
61537;BME280;48695;53.480;-6.300;2023-04-28T00:36:09;100149.50;;;14.54;62.87
61537;BME280;48695;53.480;-6.300;2023-04-28T00:38:35;100150.38;;;14.55;63.44
61537;BME280;48695;53.480;-6.300;2023-04-28T00:41:01;100157.41;;;14.54;63.37
61537;BME280;48695;53.480;-6.300;2023-04-28T00:43:26;100153.91;;;14.54;63.42
61537;BME280;48695;53.480;-6.300;2023-04-28T00:45:53;100151.28;;;14.54;63.32
61537;BME280;48695;53.480;-6.300;2023-04-28T00:48:19;100144.41;;;14.51;63.27
61537;BME280;48695;53.480;-6.300;2023-04-28T00:50:45;100141.94;;;14.48;63.34
61537;BME280;48695;53.480;-6.300;2023-04-28T00:53:11;100149.59;;;14.53;63.34
61537;BME280;48695;53.480;-6.300;2023-04-28T00:55:37;100154.00;;;14.52;63.41
61537;BME280;48695;53.480;-6.300;2023-04-28T00:58:04;100150.53;;;14.52;63.41
61537;BME280;48695;53.480;-6.300;2023-04-28T01:00:29;100158.41;;;14.52;63.21
61537;BME280;48695;53.480;-6.300;2023-04-28T01:02:56;100149.69;;;14.51;63.21
61537;BME280;48695;53.480;-6.300;2023-04-28T01:05:22;100152.38;;;14.50;63.58
61537;BME280;48695;53.480;-6.300;2023-04-28T01:07:49;100152.38;;;14.50;63.17
61537;BME280;48695;53.480;-6.300;2023-04-28T01:10:14;100160.31;;;14.48;63.28
61537;BME280;48695;53.480;-6.300;2023-04-28T01:12:40;100159.47;;;14.48;63.28
61537;BME280;48695;53.480;-6.300;2023-04-28T01:15:06;100163.00;;;14.47;62.94
61537;BME280;48695;53.480;-6.300;2023-04-28T01:17:36;100163.88;;;14.47;63.32
61537;BME280;48695;53.480;-6.300;2023-04-28T01:20:01;100164.72;;;14.48;63.45
61537;BME280;48695;53.480;-6.300;2023-04-28T01:22:28;100161.31;;;14.46;63.22
61537;BME280;48695;53.480;-6.300;2023-04-28T01:24:53;100173.47;;;14.48;63.65
61537;BME280;48695;53.480;-6.300;2023-04-28T01:27:19;100178.75;;;14.47;63.71
61537;BME280;48695;53.480;-6.300;2023-04-28T01:29:44;100183.13;;;14.48;63.50
61537;BME280;48695;53.480;-6.300;2023-04-28T01:32:10;100179.63;;;14.47;63.63
61537;BME280;48695;53.480;-6.300;2023-04-28T01:34:35;100180.50;;;14.48;63.48
61537;BME280;48695;53.480;-6.300;2023-04-28T01:37:01;100191.00;;;14.48;63.99
61537;BME280;48695;53.480;-6.300;2023-04-28T01:39:26;100186.63;;;14.47;64.05
61537;BME280;48695;53.480;-6.300;2023-04-28T01:41:52;100185.75;;;14.48;63.64
61537;BME280;48695;53.480;-6.300;2023-04-28T01:44:17;100191.00;;;14.48;63.76
61537;BME280;48695;53.480;-6.300;2023-04-28T01:46:42;100179.75;;;14.44;63.73
61537;BME280;48695;53.480;-6.300;2023-04-28T01:49:08;100194.53;;;14.47;63.45
61537;BME280;48695;53.480;-6.300;2023-04-28T01:51:33;100198.09;;;14.46;63.62
61537;BME280;48695;53.480;-6.300;2023-04-28T01:53:59;100201.50;;;14.48;63.78
61537;BME280;48695;53.480;-6.300;2023-04-28T01:56:24;100205.03;;;14.47;63.68
61537;BME280;48695;53.480;-6.300;2023-04-28T01:58:50;100199.78;;;14.47;63.91
61537;BME280;48695;53.480;-6.300;2023-04-28T02:01:15;100200.66;;;14.47;64.02
61537;BME280;48695;53.480;-6.300;2023-04-28T02:03:41;100196.50;;;14.42;63.84
61537;BME280;48695;53.480;-6.300;2023-04-28T02:06:06;100198.22;;;14.43;63.87
61537;BME280;48695;53.480;-6.300;2023-04-28T02:08:31;100211.16;;;14.47;63.77
61537;BME280;48695;53.480;-6.300;2023-04-28T02:10:57;100214.66;;;14.48;63.72
61537;BME280;48695;53.480;-6.300;2023-04-28T02:13:23;100209.53;;;14.45;63.84
61537;BME280;48695;53.480;-6.300;2023-04-28T02:15:48;100212.00;;;14.48;64.22
61537;BME280;48695;53.480;-6.300;2023-04-28T02:18:14;100212.00;;;14.48;64.15
61537;BME280;48695;53.480;-6.300;2023-04-28T02:20:39;100201.75;;;14.42;64.07
61537;BME280;48695;53.480;-6.300;2023-04-28T02:23:05;100208.47;;;14.49;64.33
61537;BME280;48695;53.480;-6.300;2023-04-28T02:25:30;100210.28;;;14.47;64.11
61537;BME280;48695;53.480;-6.300;2023-04-28T02:27:56;100210.28;;;14.47;64.20
61537;BME280;48695;53.480;-6.300;2023-04-28T02:30:21;100225.06;;;14.49;64.15
61537;BME280;48695;53.480;-6.300;2023-04-28T02:32:47;100224.34;;;14.46;63.91
61537;BME280;48695;53.480;-6.300;2023-04-28T02:35:13;100228.59;;;14.50;64.10
61537;BME280;48695;53.480;-6.300;2023-04-28T02:37:38;100227.69;;;14.49;63.75
61537;BME280;48695;53.480;-6.300;2023-04-28T02:40:04;100225.94;;;14.50;63.95
61537;BME280;48695;53.480;-6.300;2023-04-28T02:42:30;100226.84;;;14.49;63.90
61537;BME280;48695;53.480;-6.300;2023-04-28T02:44:55;100221.84;;;14.43;63.56
61537;BME280;48695;53.480;-6.300;2023-04-28T02:47:21;100224.34;;;14.46;63.56
61537;BME280;48695;53.480;-6.300;2023-04-28T02:49:46;100221.09;;;14.41;63.85
61537;BME280;48695;53.480;-6.300;2023-04-28T02:52:11;100239.97;;;14.49;63.79
61537;BME280;48695;53.480;-6.300;2023-04-28T02:54:37;100247.88;;;14.49;63.73
61537;BME280;48695;53.480;-6.300;2023-04-28T02:57:02;100237.31;;;14.50;64.14
61537;BME280;48695;53.480;-6.300;2023-04-28T02:59:28;100234.88;;;14.46;64.02
61537;BME280;48695;53.480;-6.300;2023-04-28T03:01:54;100237.34;;;14.49;64.01
61537;BME280;48695;53.480;-6.300;2023-04-28T03:04:20;100241.72;;;14.50;63.90
61537;BME280;48695;53.480;-6.300;2023-04-28T03:06:45;100228.03;;;14.42;64.12
61537;BME280;48695;53.480;-6.300;2023-04-28T03:09:11;100239.97;;;14.49;64.01
61537;BME280;48695;53.480;-6.300;2023-04-28T03:11:36;100246.97;;;14.50;64.18
61537;BME280;48695;53.480;-6.300;2023-04-28T03:14:02;100243.41;;;14.51;64.13
61537;BME280;48695;53.480;-6.300;2023-04-28T03:16:27;100241.72;;;14.50;64.07
61537;BME280;48695;53.480;-6.300;2023-04-28T03:18:53;100246.97;;;14.50;64.14
61537;BME280;48695;53.480;-6.300;2023-04-28T03:21:19;100249.59;;;14.50;64.51
61537;BME280;48695;53.480;-6.300;2023-04-28T03:23:44;100246.03;;;14.51;64.09
61537;BME280;48695;53.480;-6.300;2023-04-28T03:26:09;100238.41;;;14.45;64.30
61537;BME280;48695;53.480;-6.300;2023-04-28T03:28:35;100235.00;;;14.43;64.37
61537;BME280;48695;53.480;-6.300;2023-04-28T03:31:00;100240.13;;;14.46;64.21
61537;BME280;48695;53.480;-6.300;2023-04-28T03:33:26;100254.84;;;14.50;64.70
61537;BME280;48695;53.480;-6.300;2023-04-28T03:35:52;100257.47;;;14.50;64.51
61537;BME280;48695;53.480;-6.300;2023-04-28T03:38:18;100262.72;;;14.50;64.27
61537;BME280;48695;53.480;-6.300;2023-04-28T03:40:43;100255.75;;;14.49;64.31
61537;BME280;48695;53.480;-6.300;2023-04-28T03:43:09;100239.59;;;14.38;64.31
61537;BME280;48695;53.480;-6.300;2023-04-28T03:45:35;100259.31;;;14.48;64.38
61537;BME280;48695;53.480;-6.300;2023-04-28T03:48:00;100264.56;;;14.48;64.36
61537;BME280;48695;53.480;-6.300;2023-04-28T03:50:26;100267.19;;;14.48;64.72
61537;BME280;48695;53.480;-6.300;2023-04-28T03:52:51;100270.72;;;14.47;64.65
61537;BME280;48695;53.480;-6.300;2023-04-28T03:55:17;100280.31;;;14.48;64.66
61537;BME280;48695;53.480;-6.300;2023-04-28T03:57:42;100278.59;;;14.47;64.65
61537;BME280;48695;53.480;-6.300;2023-04-28T04:00:08;100282.16;;;14.46;64.43
61537;BME280;48695;53.480;-6.300;2023-04-28T04:02:34;100283.84;;;14.47;64.46
61537;BME280;48695;53.480;-6.300;2023-04-28T04:04:59;100274.31;;;14.44;64.20
61537;BME280;48695;53.480;-6.300;2023-04-28T04:07:25;100287.41;;;14.46;64.31
61537;BME280;48695;53.480;-6.300;2023-04-28T04:09:50;100268.66;;;14.35;64.39
61537;BME280;48695;53.480;-6.300;2023-04-28T04:12:16;100289.22;;;14.44;64.36
61537;BME280;48695;53.480;-6.300;2023-04-28T04:14:41;100289.22;;;14.44;64.33
61537;BME280;48695;53.480;-6.300;2023-04-28T04:17:07;100287.53;;;14.43;64.34
61537;BME280;48695;53.480;-6.300;2023-04-28T04:19:33;100287.53;;;14.43;64.46
61537;BME280;48695;53.480;-6.300;2023-04-28T04:21:58;100291.09;;;14.42;64.18
61537;BME280;48695;53.480;-6.300;2023-04-28T04:24:24;100287.59;;;14.41;64.35
61537;BME280;48695;53.480;-6.300;2023-04-28T04:26:49;100286.75;;;14.41;64.29
61537;BME280;48695;53.480;-6.300;2023-04-28T04:29:14;100289.38;;;14.41;64.45
61537;BME280;48695;53.480;-6.300;2023-04-28T04:31:40;100288.53;;;14.40;64.53
61537;BME280;48695;53.480;-6.300;2023-04-28T04:34:05;100287.69;;;14.40;64.45
61537;BME280;48695;53.480;-6.300;2023-04-28T04:36:31;100297.31;;;14.39;64.58
61537;BME280;48695;53.480;-6.300;2023-04-28T04:38:57;100292.13;;;14.38;64.16
61537;BME280;48695;53.480;-6.300;2023-04-28T04:41:25;100299.03;;;14.40;64.37
61537;BME280;48695;53.480;-6.300;2023-04-28T04:43:50;100299.16;;;14.37;64.08
61537;BME280;48695;53.480;-6.300;2023-04-28T04:46:16;100305.28;;;14.38;64.51
61537;BME280;48695;53.480;-6.300;2023-04-28T04:48:41;100291.50;;;14.33;64.24
61537;BME280;48695;53.480;-6.300;2023-04-28T04:51:07;100303.56;;;14.37;64.50
61537;BME280;48695;53.480;-6.300;2023-04-28T04:53:33;100301.88;;;14.36;64.35
61537;BME280;48695;53.480;-6.300;2023-04-28T04:55:58;100292.53;;;14.28;64.28
61537;BME280;48695;53.480;-6.300;2023-04-28T04:58:24;100306.19;;;14.37;64.75
61537;BME280;48695;53.480;-6.300;2023-04-28T05:00:49;100307.13;;;14.36;64.73
61537;BME280;48695;53.480;-6.300;2023-04-28T05:03:15;100314.09;;;14.37;64.48
61537;BME280;48695;53.480;-6.300;2023-04-28T05:05:40;100316.78;;;14.35;64.33
61537;BME280;48695;53.480;-6.300;2023-04-28T05:08:06;100307.41;;;14.30;64.63
61537;BME280;48695;53.480;-6.300;2023-04-28T05:10:31;100316.78;;;14.35;64.38
61537;BME280;48695;53.480;-6.300;2023-04-28T05:12:57;100319.47;;;14.34;64.92
61537;BME280;48695;53.480;-6.300;2023-04-28T05:15:22;100315.13;;;14.33;64.56
61537;BME280;48695;53.480;-6.300;2023-04-28T05:17:47;100314.19;;;14.34;64.82
61537;BME280;48695;53.480;-6.300;2023-04-28T05:20:13;100329.06;;;14.35;64.51
61537;BME280;48695;53.480;-6.300;2023-04-28T05:22:39;100329.06;;;14.35;64.90
61537;BME280;48695;53.480;-6.300;2023-04-28T05:25:05;100314.63;;;14.24;64.72
61537;BME280;48695;53.480;-6.300;2023-04-28T05:27:31;100331.69;;;14.35;64.57
61537;BME280;48695;53.480;-6.300;2023-04-28T05:29:56;100335.38;;;14.31;64.49
61537;BME280;48695;53.480;-6.300;2023-04-28T05:32:21;100330.41;;;14.24;64.40
61537;BME280;48695;53.480;-6.300;2023-04-28T05:34:47;100343.16;;;14.32;64.43
61537;BME280;48695;53.480;-6.300;2023-04-28T05:37:12;100356.09;;;14.37;64.85
61537;BME280;48695;53.480;-6.300;2023-04-28T05:39:38;100364.75;;;14.39;64.72
61537;BME280;48695;53.480;-6.300;2023-04-28T05:42:03;100368.31;;;14.38;64.85
61537;BME280;48695;53.480;-6.300;2023-04-28T05:44:29;100365.63;;;14.39;64.29
61537;BME280;48695;53.480;-6.300;2023-04-28T05:46:55;100368.19;;;14.41;64.56
61537;BME280;48695;53.480;-6.300;2023-04-28T05:49:20;100368.19;;;14.41;64.25
61537;BME280;48695;53.480;-6.300;2023-04-28T05:51:46;100377.78;;;14.42;64.43
61537;BME280;48695;53.480;-6.300;2023-04-28T05:54:11;100378.56;;;14.44;64.14
61537;BME280;48695;53.480;-6.300;2023-04-28T05:56:37;100364.06;;;14.35;64.56
61537;BME280;48695;53.480;-6.300;2023-04-28T05:59:02;100370.81;;;14.41;64.37
61537;BME280;48695;53.480;-6.300;2023-04-28T06:01:29;100383.69;;;14.47;64.13
61537;BME280;48695;53.480;-6.300;2023-04-28T06:03:55;100378.44;;;14.47;64.28
61537;BME280;48695;53.480;-6.300;2023-04-28T06:06:23;100386.25;;;14.48;64.16
61537;BME280;48695;53.480;-6.300;2023-04-28T06:08:48;100382.72;;;14.49;64.62
61537;BME280;48695;53.480;-6.300;2023-04-28T06:11:14;100373.38;;;14.42;64.54
61537;BME280;48695;53.480;-6.300;2023-04-28T06:13:39;100386.16;;;14.51;64.45
61537;BME280;48695;53.480;-6.300;2023-04-28T06:16:05;100387.00;;;14.52;64.55
61537;BME280;48695;53.480;-6.300;2023-04-28T06:18:31;100389.53;;;14.53;64.57
61537;BME280;48695;53.480;-6.300;2023-04-28T06:20:57;100392.13;;;14.55;64.70
61537;BME280;48695;53.480;-6.300;2023-04-28T06:23:22;100400.78;;;14.57;64.27
61537;BME280;48695;53.480;-6.300;2023-04-28T06:25:48;100397.22;;;14.58;64.49
61537;BME280;48695;53.480;-6.300;2023-04-28T06:28:13;100398.03;;;14.60;64.79
61537;BME280;48695;53.480;-6.300;2023-04-28T06:30:39;100398.81;;;14.62;64.60
61537;BME280;48695;53.480;-6.300;2023-04-28T06:33:05;100404.78;;;14.66;64.68
61537;BME280;48695;53.480;-6.300;2023-04-28T06:35:31;100369.97;;;14.40;64.55
61537;BME280;48695;53.480;-6.300;2023-04-28T06:37:59;100398.94;;;14.59;64.49
61537;BME280;48695;53.480;-6.300;2023-04-28T06:40:25;100419.44;;;14.71;64.36
61537;BME280;48695;53.480;-6.300;2023-04-28T06:42:51;100420.19;;;14.73;64.44
61537;BME280;48695;53.480;-6.300;2023-04-28T06:45:16;100428.81;;;14.77;64.47
61537;BME280;48695;53.480;-6.300;2023-04-28T06:47:42;100431.38;;;14.78;64.46
61537;BME280;48695;53.480;-6.300;2023-04-28T06:50:08;100426.09;;;14.78;64.22
61537;BME280;48695;53.480;-6.300;2023-04-28T06:52:33;100435.69;;;14.79;64.28
61537;BME280;48695;53.480;-6.300;2023-04-28T06:54:59;100440.06;;;14.81;64.19
61537;BME280;48695;53.480;-6.300;2023-04-28T06:57:25;100443.53;;;14.81;64.51
61537;BME280;48695;53.480;-6.300;2023-04-28T06:59:50;100436.34;;;14.85;64.59
61537;BME280;48695;53.480;-6.300;2023-04-28T07:02:15;100445.88;;;14.87;64.36
61537;BME280;48695;53.480;-6.300;2023-04-28T07:04:41;100451.88;;;14.91;64.35
61537;BME280;48695;53.480;-6.300;2023-04-28T07:07:06;100452.56;;;14.94;64.50
61537;BME280;48695;53.480;-6.300;2023-04-28T07:09:35;100459.31;;;15.00;64.20
61537;BME280;48695;53.480;-6.300;2023-04-28T07:12:02;100439.50;;;14.93;64.64
61537;BME280;48695;53.480;-6.300;2023-04-28T07:14:28;100448.31;;;14.92;64.82
61537;BME280;48695;53.480;-6.300;2023-04-28T07:16:54;100403.66;;;14.71;64.62
61537;BME280;48695;53.480;-6.300;2023-04-28T07:19:19;100465.09;;;15.08;64.61
61537;BME280;48695;53.480;-6.300;2023-04-28T07:21:44;100454.72;;;15.05;64.80
61537;BME280;48695;53.480;-6.300;2023-04-28T07:24:10;100469.31;;;15.12;64.93
61537;BME280;48695;53.480;-6.300;2023-04-28T07:26:35;100463.13;;;15.13;65.05
61537;BME280;48695;53.480;-6.300;2023-04-28T07:29:01;100477.03;;;15.15;65.07
61537;BME280;48695;53.480;-6.300;2023-04-28T07:31:26;100480.47;;;15.17;65.10
61537;BME280;48695;53.480;-6.300;2023-04-28T07:33:53;100483.88;;;15.19;65.22
61537;BME280;48695;53.480;-6.300;2023-04-28T07:36:18;100489.00;;;15.22;65.33
61537;BME280;48695;53.480;-6.300;2023-04-28T07:38:44;100484.47;;;15.26;64.41
61537;BME280;48695;53.480;-6.300;2023-04-28T07:41:09;100493.13;;;15.28;65.14
61537;BME280;48695;53.480;-6.300;2023-04-28T07:43:34;100485.97;;;15.31;64.88
61537;BME280;48695;53.480;-6.300;2023-04-28T07:46:00;100484.41;;;15.27;65.00
61537;BME280;48695;53.480;-6.300;2023-04-28T07:48:25;100476.63;;;15.24;65.03
61537;BME280;48695;53.480;-6.300;2023-04-28T07:50:52;100508.22;;;15.43;65.21
61537;BME280;48695;53.480;-6.300;2023-04-28T07:53:17;100502.88;;;15.45;65.12
61537;BME280;48695;53.480;-6.300;2023-04-28T07:55:43;100509.63;;;15.50;65.23
61537;BME280;48695;53.480;-6.300;2023-04-28T07:58:10;100511.28;;;15.53;64.92
61537;BME280;48695;53.480;-6.300;2023-04-28T08:00:36;100517.31;;;15.55;65.09
61537;BME280;48695;53.480;-6.300;2023-04-28T08:03:02;100517.19;;;15.58;64.86
61537;BME280;48695;53.480;-6.300;2023-04-28T08:05:27;100515.34;;;15.60;65.17
61537;BME280;48695;53.480;-6.300;2023-04-28T08:07:53;100520.50;;;15.63;64.78
61537;BME280;48695;53.480;-6.300;2023-04-28T08:10:18;100523.06;;;15.65;65.18
61537;BME280;48695;53.480;-6.300;2023-04-28T08:12:44;100529.16;;;15.65;65.00
61537;BME280;48695;53.480;-6.300;2023-04-28T08:15:10;100528.19;;;15.68;65.11
61537;BME280;48695;53.480;-6.300;2023-04-28T08:17:35;100531.53;;;15.71;64.76
61537;BME280;48695;53.480;-6.300;2023-04-28T08:20:01;100528.75;;;15.74;65.05
61537;BME280;48695;53.480;-6.300;2023-04-28T08:22:27;100535.72;;;15.75;65.11
61537;BME280;48695;53.480;-6.300;2023-04-28T08:24:52;100535.59;;;15.78;65.10
61537;BME280;48695;53.480;-6.300;2023-04-28T08:27:17;100542.53;;;15.79;65.16
61537;BME280;48695;53.480;-6.300;2023-04-28T08:29:43;100543.19;;;15.85;65.31
61537;BME280;48695;53.480;-6.300;2023-04-28T08:32:08;100550.03;;;15.89;65.35
61537;BME280;48695;53.480;-6.300;2023-04-28T08:34:34;100546.38;;;15.91;64.83
61537;BME280;48695;53.480;-6.300;2023-04-28T08:37:00;100549.72;;;15.95;64.72
61537;BME280;48695;53.480;-6.300;2023-04-28T08:39:25;100546.97;;;15.98;64.95
61537;BME280;48695;53.480;-6.300;2023-04-28T08:41:52;100532.44;;;15.89;65.28
61537;BME280;48695;53.480;-6.300;2023-04-28T08:44:18;100551.16;;;16.02;64.79
61537;BME280;48695;53.480;-6.300;2023-04-28T08:46:45;100549.22;;;16.05;65.13
61537;BME280;48695;53.480;-6.300;2023-04-28T08:49:15;100556.91;;;16.10;64.62
61537;BME280;48695;53.480;-6.300;2023-04-28T08:51:59;100559.41;;;16.13;64.15
61537;BME280;48695;53.480;-6.300;2023-04-28T08:54:29;100560.34;;;16.12;64.77
61537;BME280;48695;53.480;-6.300;2023-04-28T08:56:56;100573.50;;;16.12;65.52
61537;BME280;48695;53.480;-6.300;2023-04-28T08:59:22;100550.28;;;16.01;65.26
61537;BME280;48695;53.480;-6.300;2023-04-28T09:01:48;100573.41;;;16.14;65.84
61537;BME280;48695;53.480;-6.300;2023-04-28T09:04:16;100578.59;;;16.15;65.42
61537;BME280;48695;53.480;-6.300;2023-04-28T09:06:41;100577.41;;;16.22;62.85
61537;BME280;48695;53.480;-6.300;2023-04-28T09:09:28;100580.03;;;16.22;64.48
61537;BME280;48695;53.480;-6.300;2023-04-28T09:12:02;100580.09;;;16.21;64.99
61537;BME280;48695;53.480;-6.300;2023-04-28T09:14:30;100581.09;;;16.18;66.14
61537;BME280;48695;53.480;-6.300;2023-04-28T09:16:56;100593.22;;;16.22;66.26
61537;BME280;48695;53.480;-6.300;2023-04-28T09:19:21;100588.63;;;16.26;66.08
61537;BME280;48695;53.480;-6.300;2023-04-28T09:21:56;100588.97;;;16.37;65.44
61537;BME280;48695;53.480;-6.300;2023-04-28T09:27:02;100590.84;;;16.52;66.41
61537;BME280;48695;53.480;-6.300;2023-04-28T09:29:28;100592.66;;;16.69;64.31
61537;BME280;48695;53.480;-6.300;2023-04-28T09:32:11;100586.19;;;16.76;65.01
61537;BME280;48695;53.480;-6.300;2023-04-28T09:34:45;100587.41;;;16.86;65.44
61537;BME280;48695;53.480;-6.300;2023-04-28T09:37:18;100589.59;;;16.96;64.90
61537;BME280;48695;53.480;-6.300;2023-04-28T09:39:52;100590.13;;;17.02;65.10
61537;BME280;48695;53.480;-6.300;2023-04-28T09:44:59;100594.94;;;17.11;65.22
61537;BME280;48695;53.480;-6.300;2023-04-28T09:47:24;100606.03;;;17.18;64.42
61537;BME280;48695;53.480;-6.300;2023-04-28T09:49:54;100599.59;;;17.24;64.37
61537;BME280;48695;53.480;-6.300;2023-04-28T09:52:21;100599.66;;;17.22;64.30
61537;BME280;48695;53.480;-6.300;2023-04-28T09:54:50;100598.06;;;17.20;64.78
61537;BME280;48695;53.480;-6.300;2023-04-28T09:57:16;100603.16;;;17.23;64.97
61537;BME280;48695;53.480;-6.300;2023-04-28T09:59:46;100601.97;;;17.28;64.98
61537;BME280;48695;53.480;-6.300;2023-04-28T10:02:14;100606.97;;;17.34;65.10
61537;BME280;48695;53.480;-6.300;2023-04-28T10:04:44;100611.59;;;17.47;65.09
61537;BME280;48695;53.480;-6.300;2023-04-28T10:07:14;100609.78;;;17.64;64.69
61537;BME280;48695;53.480;-6.300;2023-04-28T10:09:44;100613.47;;;17.78;64.55
61537;BME280;48695;53.480;-6.300;2023-04-28T10:12:14;100611.78;;;17.93;64.11
61537;BME280;48695;53.480;-6.300;2023-04-28T10:14:41;100606.84;;;18.02;63.88
61537;BME280;48695;53.480;-6.300;2023-04-28T10:17:07;100603.03;;;18.08;63.45
61537;BME280;48695;53.480;-6.300;2023-04-28T10:19:33;100614.44;;;18.24;63.25
61537;BME280;48695;53.480;-6.300;2023-04-28T10:27:33;100631.81;;;18.60;62.31
61537;BME280;48695;53.480;-6.300;2023-04-28T10:32:38;100627.66;;;18.72;61.95
61537;BME280;48695;53.480;-6.300;2023-04-28T10:43:34;100637.41;;;18.85;61.34
61537;BME280;48695;53.480;-6.300;2023-04-28T10:46:04;100646.13;;;18.87;61.85
61537;BME280;48695;53.480;-6.300;2023-04-28T10:56:17;100646.84;;;19.50;60.74
61537;BME280;48695;53.480;-6.300;2023-04-28T10:58:47;100644.19;;;19.50;60.36
61537;BME280;48695;53.480;-6.300;2023-04-28T11:01:23;100649.88;;;19.58;60.47
61537;BME280;48695;53.480;-6.300;2023-04-28T11:03:55;100650.50;;;19.63;60.70
61537;BME280;48695;53.480;-6.300;2023-04-28T11:06:43;100648.78;;;19.76;60.84
61537;BME280;48695;53.480;-6.300;2023-04-28T11:19:18;100666.34;;;20.49;58.69
61537;BME280;48695;53.480;-6.300;2023-04-28T11:21:45;100653.75;;;20.38;58.25
61537;BME280;48695;53.480;-6.300;2023-04-28T11:24:11;100661.47;;;20.41;57.47
61537;BME280;48695;53.480;-6.300;2023-04-28T11:26:37;100667.06;;;20.36;57.35
61537;BME280;48695;53.480;-6.300;2023-04-28T11:29:03;100662.28;;;20.29;57.48
61537;BME280;48695;53.480;-6.300;2023-04-28T11:31:30;100675.94;;;20.23;57.67
61537;BME280;48695;53.480;-6.300;2023-04-28T11:34:05;100677.34;;;20.14;57.40
61537;BME280;48695;53.480;-6.300;2023-04-28T11:36:36;100685.50;;;20.11;57.54
61537;BME280;48695;53.480;-6.300;2023-04-28T11:39:06;100689.47;;;20.04;58.31
61537;BME280;48695;53.480;-6.300;2023-04-28T11:41:36;100686.16;;;19.86;58.72
61537;BME280;48695;53.480;-6.300;2023-04-28T11:44:21;100689.59;;;19.88;58.17
61537;BME280;48695;53.480;-6.300;2023-04-28T11:46:51;100684.75;;;19.80;58.53
61537;BME280;48695;53.480;-6.300;2023-04-28T11:49:23;100685.13;;;19.74;58.16
61537;BME280;48695;53.480;-6.300;2023-04-28T11:51:50;100691.94;;;19.64;58.34
61537;BME280;48695;53.480;-6.300;2023-04-28T11:54:27;100692.88;;;19.63;58.34
61537;BME280;48695;53.480;-6.300;2023-04-28T11:56:54;100702.19;;;19.54;58.55
61537;BME280;48695;53.480;-6.300;2023-04-28T11:59:25;100704.94;;;19.53;58.40
61537;BME280;48695;53.480;-6.300;2023-04-28T12:01:51;100701.97;;;19.43;59.47
61537;BME280;48695;53.480;-6.300;2023-04-28T12:07:12;100704.91;;;19.38;59.29
61537;BME280;48695;53.480;-6.300;2023-04-28T12:12:06;100697.13;;;19.21;60.70
61537;BME280;48695;53.480;-6.300;2023-04-28T12:14:32;100710.38;;;19.35;59.48
61537;BME280;48695;53.480;-6.300;2023-04-28T12:16:59;100715.00;;;19.32;61.13
61537;BME280;48695;53.480;-6.300;2023-04-28T12:19:26;100714.66;;;19.38;60.98
61537;BME280;48695;53.480;-6.300;2023-04-28T12:22:02;100723.66;;;19.50;60.03
61537;BME280;48695;53.480;-6.300;2023-04-28T12:24:28;100725.34;;;19.51;60.34
61537;BME280;48695;53.480;-6.300;2023-04-28T12:26:53;100726.88;;;19.55;60.45
61537;BME280;48695;53.480;-6.300;2023-04-28T12:29:38;100730.72;;;19.65;60.09
61537;BME280;48695;53.480;-6.300;2023-04-28T12:32:08;100738.50;;;19.68;60.17
61537;BME280;48695;53.480;-6.300;2023-04-28T12:34:35;100734.88;;;19.69;60.59
61537;BME280;48695;53.480;-6.300;2023-04-28T12:37:01;100738.84;;;19.76;60.33
61537;BME280;48695;53.480;-6.300;2023-04-28T12:39:30;100736.50;;;19.86;60.71
61537;BME280;48695;53.480;-6.300;2023-04-28T12:41:55;100730.47;;;19.98;60.12
61537;BME280;48695;53.480;-6.300;2023-04-28T12:44:23;100727.34;;;20.06;59.30
61537;BME280;48695;53.480;-6.300;2023-04-28T12:46:50;100737.00;;;20.21;59.25
61537;BME280;48695;53.480;-6.300;2023-04-28T12:49:15;100733.22;;;20.25;58.44
61537;BME280;48695;53.480;-6.300;2023-04-28T12:51:41;100740.13;;;20.28;58.05
61537;BME280;48695;53.480;-6.300;2023-04-28T12:54:06;100736.81;;;20.24;58.27
61537;BME280;48695;53.480;-6.300;2023-04-28T12:56:32;100741.34;;;20.22;58.20
61537;BME280;48695;53.480;-6.300;2023-04-28T12:58:58;100741.72;;;20.16;58.50
61537;BME280;48695;53.480;-6.300;2023-04-28T13:01:24;100739.47;;;20.10;58.67
61537;BME280;48695;53.480;-6.300;2023-04-28T13:03:50;100744.09;;;20.06;58.65
61537;BME280;48695;53.480;-6.300;2023-04-28T13:06:17;100745.25;;;20.02;59.14
61537;BME280;48695;53.480;-6.300;2023-04-28T13:08:43;100745.25;;;20.02;58.60
61537;BME280;48695;53.480;-6.300;2023-04-28T13:11:09;100746.84;;;20.05;58.44
61537;BME280;48695;53.480;-6.300;2023-04-28T13:13:35;100755.53;;;20.07;58.60
61537;BME280;48695;53.480;-6.300;2023-04-28T13:16:01;100758.03;;;20.10;58.87
61537;BME280;48695;53.480;-6.300;2023-04-28T13:18:26;100759.66;;;20.12;58.68
61537;BME280;48695;53.480;-6.300;2023-04-28T13:20:51;100762.19;;;20.14;58.04
61537;BME280;48695;53.480;-6.300;2023-04-28T13:23:17;100772.81;;;20.14;58.15